createdAt,value
2022-09-24T00:02:14.499Z,19.30
2022-09-24T00:04:41.772Z,19.30
2022-09-24T00:07:09.058Z,19.30
2022-09-24T00:09:36.458Z,19.30
2022-09-24T00:12:06.474Z,19.30
2022-09-24T00:14:39.867Z,19.30
2022-09-24T00:17:07.453Z,19.30
2022-09-24T00:19:37.622Z,19.30
2022-09-24T00:22:05.278Z,19.30
2022-09-24T00:24:51.309Z,19.30
2022-09-24T00:27:20.619Z,19.30
2022-09-24T00:29:47.892Z,19.30
2022-09-24T00:32:16.057Z,19.30
2022-09-24T00:34:43.334Z,19.30
2022-09-24T00:40:15.451Z,19.20
2022-09-24T00:42:45.755Z,19.30
2022-09-24T00:45:13.075Z,19.30
2022-09-24T00:47:42.595Z,19.30
2022-09-24T00:51:04.940Z,19.30
2022-09-24T00:56:45.234Z,19.20
2022-09-24T00:59:17.314Z,19.30
2022-09-24T01:01:47.365Z,19.20
2022-09-24T01:04:21.266Z,19.30
2022-09-24T01:06:49.859Z,19.20
2022-09-24T01:09:22.918Z,19.20
2022-09-24T01:12:19.397Z,19.20
2022-09-24T01:15:08.297Z,19.20
2022-09-24T01:18:08.870Z,19.20
2022-09-24T01:20:59.227Z,19.20
2022-09-24T01:24:02.058Z,19.20
2022-09-24T01:26:32.337Z,19.20
2022-09-24T01:29:24.487Z,19.20
2022-09-24T01:32:07.087Z,19.10
2022-09-24T01:34:58.221Z,19.20
2022-09-24T01:37:28.402Z,19.10
2022-09-24T01:39:58.854Z,19.10
2022-09-24T01:42:29.224Z,19.10
2022-09-24T01:44:58.277Z,19.10
2022-09-24T01:52:09.227Z,19.10
2022-09-24T01:55:29.163Z,19.10
2022-09-24T01:58:30.353Z,19.10
2022-09-24T02:01:10.697Z,19.10
2022-09-24T02:04:08.592Z,19.10
2022-09-24T02:06:54.148Z,19.10
2022-09-24T02:21:43.016Z,19.00
2022-09-24T02:28:10.005Z,19.00
2022-09-24T02:30:42.889Z,19.00
2022-09-24T02:33:34.312Z,19.00
2022-09-24T02:36:01.872Z,19.00
2022-09-24T02:38:31.838Z,19.00
2022-09-24T02:41:08.431Z,19.00
2022-09-24T02:43:55.690Z,19.00
2022-09-24T02:46:32.869Z,19.00
2022-09-24T02:49:01.614Z,19.00
2022-09-24T02:51:31.278Z,19.00
2022-09-24T02:53:58.648Z,19.00
2022-09-24T02:56:25.929Z,19.00
2022-09-24T02:58:54.522Z,19.00
2022-09-24T03:01:24.611Z,19.00
2022-09-24T03:04:12.459Z,19.00
2022-09-24T03:06:42.987Z,19.00
2022-09-24T03:09:19.548Z,19.00
2022-09-24T03:12:09.089Z,19.00
2022-09-24T03:14:36.493Z,19.00
2022-09-24T03:17:06.215Z,19.00
2022-09-24T03:19:33.550Z,19.00
2022-09-24T03:22:00.830Z,19.00
2022-09-24T03:24:28.177Z,19.10
2022-09-24T03:26:55.659Z,19.00
2022-09-24T03:29:42.955Z,19.10
2022-09-24T03:32:10.279Z,19.00
2022-09-24T03:34:37.632Z,19.00
2022-09-24T03:37:07.160Z,19.00
2022-09-24T03:39:34.599Z,19.00
2022-09-24T03:42:02.166Z,19.00
2022-09-24T03:44:44.142Z,18.90
2022-09-24T03:47:11.394Z,19.00
2022-09-24T03:49:38.791Z,18.90
2022-09-24T03:52:06.131Z,18.90
2022-09-24T03:54:33.471Z,18.90
2022-09-24T03:57:04.850Z,18.90
2022-09-24T03:59:32.152Z,18.90
2022-09-24T04:02:08.482Z,18.90
2022-09-24T04:04:36.066Z,18.80
2022-09-24T04:07:04.023Z,18.80
2022-09-24T04:09:38.875Z,18.80
2022-09-24T04:12:06.749Z,18.70
2022-09-24T04:14:34.029Z,18.70
2022-09-24T04:17:01.558Z,18.70
2022-09-24T04:19:44.158Z,18.70
2022-09-24T04:22:11.549Z,18.60
2022-09-24T04:24:38.925Z,18.60
2022-09-24T04:27:09.686Z,18.60
2022-09-24T04:32:34.294Z,18.50
2022-09-24T04:35:07.483Z,18.50
2022-09-24T04:37:50.794Z,18.50
2022-09-24T04:40:18.287Z,18.50
2022-09-24T04:42:51.624Z,18.40
2022-09-24T04:45:22.687Z,18.40
2022-09-24T04:48:11.077Z,18.40
2022-09-24T04:50:58.583Z,18.40
2022-09-24T04:53:33.006Z,18.40
2022-09-24T04:56:00.707Z,18.40
2022-09-24T04:58:30.696Z,18.40
2022-09-24T05:01:03.865Z,18.40
2022-09-24T05:03:34.875Z,18.40
2022-09-24T05:06:02.162Z,18.40
2022-09-24T05:08:29.498Z,18.40
2022-09-24T05:10:56.812Z,18.40
2022-09-24T05:13:56.901Z,18.40
2022-09-24T05:16:24.489Z,18.50
2022-09-24T05:18:52.081Z,18.50
2022-09-24T05:21:19.379Z,18.50
2022-09-24T05:23:51.601Z,18.50
2022-09-24T05:26:37.677Z,18.50
2022-09-24T05:29:05.018Z,18.60
2022-09-24T05:31:32.596Z,18.60
2022-09-24T05:34:00.317Z,18.60
2022-09-24T05:36:27.569Z,18.60
2022-09-24T05:38:54.959Z,18.60
2022-09-24T05:41:23.048Z,18.70
2022-09-24T05:43:53.274Z,18.70
2022-09-24T05:46:43.368Z,18.80
2022-09-24T05:49:11.909Z,18.80
2022-09-24T05:52:22.137Z,18.80
2022-09-24T06:00:52.447Z,19.00
2022-09-24T06:03:20.942Z,19.00
2022-09-24T06:08:50.098Z,19.10
2022-09-24T06:11:17.630Z,19.20
2022-09-24T06:17:28.834Z,19.20
2022-09-24T06:20:12.644Z,19.30
2022-09-24T06:22:59.864Z,19.30
2022-09-24T06:25:50.778Z,19.40
2022-09-24T06:28:18.063Z,19.50
2022-09-24T06:30:45.439Z,19.50
2022-09-24T06:33:16.530Z,19.40
2022-09-24T06:35:48.661Z,19.40
2022-09-24T06:38:18.017Z,19.50
2022-09-24T06:40:47.616Z,19.40
2022-09-24T06:43:19.213Z,19.40
2022-09-24T06:45:46.593Z,19.40
2022-09-24T06:48:14.639Z,19.30
2022-09-24T06:50:43.812Z,19.30
2022-09-24T06:53:12.552Z,19.40
2022-09-24T06:55:40.172Z,19.30
2022-09-24T06:58:10.213Z,19.30
2022-09-24T07:00:38.955Z,19.40
2022-09-24T07:03:07.496Z,19.40
2022-09-24T07:06:10.978Z,19.40
2022-09-24T07:08:38.487Z,19.50
2022-09-24T07:11:06.142Z,19.60
2022-09-24T07:13:33.412Z,19.60
2022-09-24T07:16:01.504Z,19.70
2022-09-24T07:18:29.013Z,19.70
2022-09-24T07:20:56.793Z,19.90
2022-09-24T07:23:24.438Z,19.90
2022-09-24T07:25:59.082Z,20.00
2022-09-24T07:28:26.451Z,20.00
2022-09-24T07:30:58.634Z,20.10
2022-09-24T07:33:26.149Z,20.20
2022-09-24T07:35:53.892Z,20.20
2022-09-24T07:38:22.259Z,20.20
2022-09-24T07:41:41.369Z,20.30
2022-09-24T07:44:11.979Z,20.20
2022-09-24T07:46:39.357Z,20.20
2022-09-24T07:49:06.668Z,20.20
2022-09-24T07:51:34.007Z,20.30
2022-09-24T07:54:01.308Z,20.40
2022-09-24T07:56:30.895Z,20.40
2022-09-24T07:58:58.551Z,20.50
2022-09-24T08:01:26.612Z,20.50
2022-09-24T08:03:54.665Z,20.50
2022-09-24T08:06:23.058Z,20.50
2022-09-24T08:08:52.598Z,20.40
2022-09-24T08:11:25.034Z,20.40
2022-09-24T08:13:52.443Z,20.50
2022-09-24T08:16:29.010Z,20.50
2022-09-24T08:18:56.378Z,20.60
2022-09-24T08:21:23.773Z,20.60
2022-09-24T08:23:51.174Z,20.60
2022-09-24T08:26:18.481Z,20.70
2022-09-24T08:28:49.236Z,20.70
2022-09-24T08:31:16.986Z,20.60
2022-09-24T08:33:46.370Z,20.60
2022-09-24T08:36:14.270Z,20.50
2022-09-24T08:38:41.582Z,20.50
2022-09-24T08:41:11.937Z,20.60
2022-09-24T08:44:05.564Z,20.50
2022-09-24T08:47:11.712Z,20.60
2022-09-24T08:49:52.550Z,20.60
2022-09-24T08:52:38.386Z,20.60
2022-09-24T08:55:23.192Z,20.70
2022-09-24T08:58:29.890Z,20.70
2022-09-24T09:01:12.111Z,20.80
2022-09-24T09:03:39.487Z,20.80
2022-09-24T09:06:19.969Z,20.80
2022-09-24T09:09:06.738Z,20.90
2022-09-24T09:11:37.497Z,20.90
2022-09-24T09:14:41.150Z,20.80
2022-09-24T09:17:17.408Z,20.70
2022-09-24T09:19:53.958Z,20.70
2022-09-24T09:22:26.282Z,20.70
2022-09-24T09:25:03.653Z,20.70
2022-09-24T09:27:31.757Z,20.60
2022-09-24T09:30:14.217Z,20.60
2022-09-24T09:32:57.891Z,20.50
2022-09-24T09:36:05.394Z,20.50
2022-09-24T09:38:47.939Z,20.40
2022-09-24T09:41:26.966Z,20.40
2022-09-24T09:44:00.736Z,20.40
2022-09-24T09:46:33.644Z,20.30
2022-09-24T09:49:07.324Z,20.30
2022-09-24T09:51:40.747Z,20.20
2022-09-24T09:54:11.837Z,20.20
2022-09-24T09:56:49.009Z,20.20
2022-09-24T09:59:30.024Z,20.10
2022-09-24T10:01:57.757Z,20.10
2022-09-24T10:04:34.570Z,20.10
2022-09-24T10:07:07.626Z,20.20
2022-09-24T10:09:35.545Z,20.20
2022-09-24T10:12:34.066Z,20.30
2022-09-24T10:15:03.708Z,20.30
2022-09-24T10:17:38.406Z,20.30
2022-09-24T10:20:18.999Z,20.30
2022-09-24T10:22:51.402Z,20.40
2022-09-24T10:25:24.614Z,20.30
2022-09-24T10:27:53.339Z,20.30
2022-09-24T10:30:36.084Z,20.40
2022-09-24T10:33:09.085Z,20.40
2022-09-24T10:35:39.451Z,20.40
2022-09-24T10:38:26.849Z,20.40
2022-09-24T10:40:54.377Z,20.40
2022-09-24T10:43:22.593Z,20.50
2022-09-24T10:46:05.750Z,20.50
2022-09-24T10:48:56.815Z,20.60
2022-09-24T10:51:42.206Z,20.60
2022-09-24T10:54:34.534Z,20.70
2022-09-24T10:57:27.050Z,20.70
2022-09-24T11:00:23.977Z,20.70
2022-09-24T11:03:00.217Z,20.70
2022-09-24T11:06:30.387Z,20.70
2022-09-24T11:09:06.721Z,20.80
2022-09-24T11:12:20.622Z,20.90
2022-09-24T11:15:30.235Z,20.90
2022-09-24T11:18:23.043Z,21.00
2022-09-24T11:21:12.939Z,21.00
2022-09-24T11:24:04.207Z,21.10
2022-09-24T11:27:05.491Z,21.10
2022-09-24T11:30:10.088Z,21.10
2022-09-24T11:32:42.225Z,21.10
2022-09-24T11:35:35.504Z,21.10
2022-09-24T11:38:53.381Z,21.20
2022-09-24T11:41:29.977Z,21.10
2022-09-24T11:44:11.449Z,21.00
2022-09-24T11:46:53.788Z,21.00
2022-09-24T11:49:42.901Z,21.00
2022-09-24T11:52:37.415Z,21.00
2022-09-24T11:55:15.845Z,21.10
2022-09-24T11:58:29.086Z,21.00
2022-09-24T12:01:20.253Z,21.00
2022-09-24T12:03:58.404Z,20.90
2022-09-24T12:06:36.223Z,20.90
2022-09-24T12:09:35.696Z,21.00
2022-09-24T12:12:28.245Z,21.00
2022-09-24T12:14:58.581Z,20.90
2022-09-24T12:17:40.873Z,21.00
2022-09-24T12:20:28.846Z,20.90
2022-09-24T12:23:11.345Z,20.90
2022-09-24T12:25:45.770Z,21.00
2022-09-24T12:28:39.177Z,21.00
2022-09-24T12:32:02.009Z,21.00
2022-09-24T12:34:38.379Z,21.10
2022-09-24T12:37:16.766Z,21.00
2022-09-24T12:40:01.862Z,21.00
2022-09-24T12:42:43.735Z,21.00
2022-09-24T12:45:22.354Z,21.00
2022-09-24T12:48:11.657Z,21.00
2022-09-24T12:50:39.956Z,21.00
2022-09-24T12:53:24.761Z,21.00
2022-09-24T12:55:59.135Z,21.00
2022-09-24T12:58:39.853Z,20.90
2022-09-24T13:01:27.695Z,20.80
2022-09-24T13:04:14.037Z,20.80
2022-09-24T13:06:59.649Z,20.70
2022-09-24T13:09:34.296Z,20.70
2022-09-24T13:12:03.461Z,20.70
2022-09-24T13:14:41.601Z,20.70
2022-09-24T13:17:09.187Z,20.70
2022-09-24T13:19:45.418Z,20.70
2022-09-24T13:22:38.999Z,20.70
2022-09-24T13:25:09.401Z,20.70
2022-09-24T13:27:41.222Z,20.80
2022-09-24T13:30:15.698Z,20.80
2022-09-24T13:33:01.703Z,20.70
2022-09-24T13:35:34.768Z,20.60
2022-09-24T13:38:13.380Z,20.50
2022-09-24T13:40:49.880Z,20.40
2022-09-24T13:43:52.828Z,20.40
2022-09-24T13:46:21.103Z,20.30
2022-09-24T13:48:57.640Z,20.40
2022-09-24T13:51:29.897Z,20.40
2022-09-24T13:54:14.566Z,20.40
2022-09-24T13:56:42.736Z,20.40
2022-09-24T13:59:13.165Z,20.40
2022-09-24T14:01:44.603Z,20.40
2022-09-24T14:04:18.074Z,20.50
2022-09-24T14:06:50.723Z,20.60
2022-09-24T14:09:41.191Z,20.60
2022-09-24T14:12:16.728Z,20.70
2022-09-24T14:14:47.441Z,20.70
2022-09-24T14:17:15.995Z,20.70
2022-09-24T14:19:43.524Z,20.70
2022-09-24T14:22:22.885Z,20.60
2022-09-24T14:25:15.414Z,20.70
2022-09-24T14:27:47.966Z,20.60
2022-09-24T14:30:27.209Z,20.70
2022-09-24T14:33:22.490Z,20.60
2022-09-24T14:35:53.580Z,20.60
2022-09-24T14:38:35.822Z,20.60
2022-09-24T14:41:14.995Z,20.60
2022-09-24T14:43:42.241Z,20.60
2022-09-24T14:46:21.810Z,20.60
2022-09-24T14:48:49.752Z,20.60
2022-09-24T14:51:31.168Z,20.60
2022-09-24T14:54:07.625Z,20.60
2022-09-24T14:56:35.107Z,20.60
2022-09-24T14:59:13.115Z,20.60
2022-09-24T15:01:40.715Z,20.60
2022-09-24T15:04:20.442Z,20.70
2022-09-24T15:06:48.415Z,20.70
2022-09-24T15:09:30.048Z,20.70
2022-09-24T15:12:08.545Z,20.60
2022-09-24T15:14:36.728Z,20.60
2022-09-24T15:17:21.102Z,20.60
2022-09-24T15:19:48.734Z,20.60
2022-09-24T15:22:16.245Z,20.50
2022-09-24T15:24:43.561Z,20.50
2022-09-24T15:27:34.607Z,20.50
2022-09-24T15:30:12.669Z,20.60
2022-09-24T15:32:40.011Z,20.60
2022-09-24T15:35:09.521Z,20.60
2022-09-24T15:37:40.833Z,20.60
2022-09-24T15:40:12.754Z,20.50
2022-09-24T15:42:40.022Z,20.50
2022-09-24T15:45:22.768Z,20.50
2022-09-24T15:48:10.041Z,20.40
2022-09-24T15:50:39.785Z,20.40
2022-09-24T15:53:19.225Z,20.40
2022-09-24T15:55:49.666Z,20.40
2022-09-24T15:58:19.442Z,20.30
2022-09-24T16:00:52.926Z,20.30
2022-09-24T16:03:31.535Z,20.30
2022-09-24T16:06:39.964Z,20.20
2022-09-24T16:09:07.270Z,20.20
2022-09-24T16:11:38.855Z,20.10
2022-09-24T16:14:07.426Z,20.10
2022-09-24T16:16:34.789Z,20.10
2022-09-24T16:19:06.446Z,20.10
2022-09-24T16:21:37.511Z,20.10
2022-09-24T16:24:21.766Z,20.10
2022-09-24T16:26:49.043Z,20.10
2022-09-24T16:29:18.252Z,20.10
2022-09-24T16:31:50.433Z,20.10
2022-09-24T16:34:21.428Z,20.00
2022-09-24T16:36:52.934Z,20.00
2022-09-24T16:39:21.127Z,20.00
2022-09-24T16:41:52.000Z,20.00
2022-09-24T16:44:22.071Z,20.00
2022-09-24T16:46:49.471Z,20.00
2022-09-24T16:49:17.328Z,19.90
2022-09-24T16:51:47.958Z,19.90
2022-09-24T16:54:15.437Z,19.90
2022-09-24T16:57:20.554Z,19.90
2022-09-24T16:59:50.271Z,19.80
2022-09-24T17:02:18.308Z,19.80
2022-09-24T17:04:59.812Z,19.80
2022-09-24T17:07:35.467Z,19.80
2022-09-24T17:13:37.012Z,19.90
2022-09-24T17:16:04.461Z,19.90
2022-09-24T17:18:32.997Z,19.90
2022-09-24T17:21:05.278Z,19.90
2022-09-24T17:23:36.459Z,19.90
2022-09-24T17:26:09.199Z,19.90
2022-09-24T17:28:41.373Z,19.90
2022-09-24T17:31:11.643Z,19.90
2022-09-24T17:33:43.981Z,19.90
2022-09-24T17:36:15.810Z,19.90
2022-09-24T17:38:43.452Z,19.80
2022-09-24T17:41:15.594Z,19.80
2022-09-24T17:43:43.286Z,19.70
2022-09-24T17:46:22.561Z,19.70
2022-09-24T17:48:54.330Z,19.70
2022-09-24T17:51:46.465Z,19.80
2022-09-24T17:54:23.051Z,19.80
2022-09-24T17:56:50.746Z,19.80
2022-09-24T17:59:26.425Z,19.70
2022-09-24T18:01:54.400Z,19.70
2022-09-24T18:04:42.148Z,19.70
2022-09-24T18:07:10.881Z,19.70
2022-09-24T18:09:38.210Z,19.70
2022-09-24T18:12:06.852Z,19.70
2022-09-24T18:14:36.261Z,19.70
2022-09-24T18:17:04.757Z,19.70
2022-09-24T18:19:32.134Z,19.70
2022-09-24T18:21:59.895Z,19.70
2022-09-24T18:24:27.176Z,19.70
2022-09-24T18:26:54.521Z,19.60
2022-09-24T18:29:22.542Z,19.70
2022-09-24T18:31:51.692Z,19.60
2022-09-24T18:34:19.361Z,19.60
2022-09-24T18:36:46.788Z,19.50
2022-09-24T18:39:21.804Z,19.40
2022-09-24T18:41:52.797Z,19.50
2022-09-24T18:44:20.251Z,19.40
2022-09-24T18:46:47.703Z,19.50
2022-09-24T18:49:15.018Z,19.50
2022-09-24T18:51:42.389Z,19.40
2022-09-24T18:54:14.734Z,19.40
2022-09-24T18:57:22.625Z,19.40
2022-09-24T18:59:52.358Z,19.30
2022-09-24T19:02:23.810Z,19.30
2022-09-24T19:04:51.202Z,19.20
2022-09-24T19:07:18.868Z,19.20
2022-09-24T19:09:46.702Z,19.30
2022-09-24T19:12:14.040Z,19.40
2022-09-24T19:14:42.517Z,19.40
2022-09-24T19:17:09.834Z,19.30
2022-09-24T19:19:37.137Z,19.40
2022-09-24T19:22:04.466Z,19.30
2022-09-24T19:24:31.741Z,19.30
2022-09-24T19:26:59.035Z,19.30
2022-09-24T19:29:26.536Z,19.20
2022-09-24T19:31:54.038Z,19.20
2022-09-24T19:34:22.080Z,19.00
2022-09-24T19:36:49.378Z,18.90
2022-09-24T19:39:18.165Z,18.90
2022-09-24T19:41:45.874Z,18.90
2022-09-24T19:44:13.731Z,18.80
2022-09-24T19:46:41.437Z,18.70
2022-09-24T19:49:09.147Z,18.70
2022-09-24T19:51:36.947Z,18.70
2022-09-24T19:54:08.826Z,18.70
2022-09-24T19:56:37.049Z,18.70
2022-09-24T19:59:05.259Z,18.70
2022-09-24T20:01:33.614Z,18.70
2022-09-24T20:04:05.217Z,18.70
2022-09-24T20:06:34.810Z,18.70
2022-09-24T20:09:02.210Z,18.70
2022-09-24T20:11:32.332Z,18.60
2022-09-24T20:14:00.296Z,18.60
2022-09-24T20:16:32.843Z,18.60
2022-09-24T20:19:02.061Z,18.60
2022-09-24T20:21:34.847Z,18.60
2022-09-24T20:24:03.977Z,18.50
2022-09-24T20:26:50.748Z,18.50
2022-09-24T20:29:19.828Z,18.60
2022-09-24T20:31:56.251Z,18.80
2022-09-24T20:34:28.781Z,18.90
2022-09-24T20:37:04.302Z,18.90
2022-09-24T20:39:33.203Z,18.90
2022-09-24T20:42:06.957Z,18.70
2022-09-24T20:44:34.614Z,18.70
2022-09-24T20:47:03.074Z,18.70
2022-09-24T20:49:30.502Z,18.80
2022-09-24T20:51:58.241Z,18.90
2022-09-24T20:54:28.141Z,18.80
2022-09-24T20:56:56.121Z,18.70
2022-09-24T20:59:26.320Z,18.60
2022-09-24T21:01:54.615Z,18.50
2022-09-24T21:04:37.592Z,18.40
2022-09-24T21:07:05.645Z,18.40
2022-09-24T21:09:36.162Z,18.40
2022-09-24T21:12:03.669Z,18.30
2022-09-24T21:17:18.544Z,18.30
2022-09-24T21:19:45.838Z,18.30
2022-09-24T21:22:13.662Z,18.30
2022-09-24T21:24:58.664Z,18.40
2022-09-24T21:27:31.100Z,18.40
2022-09-24T21:38:33.009Z,18.40
2022-09-24T21:41:06.013Z,18.40
2022-09-24T21:46:58.770Z,18.40
2022-09-24T21:49:26.523Z,18.40
2022-09-24T21:52:03.001Z,18.40
2022-09-24T21:54:33.518Z,18.30
2022-09-24T21:57:00.931Z,18.40
2022-09-24T21:59:47.062Z,18.30
2022-09-24T22:02:14.678Z,18.30
2022-09-24T22:04:48.284Z,18.30
2022-09-24T22:07:17.709Z,18.30
2022-09-24T22:09:45.220Z,18.30
2022-09-24T22:12:13.736Z,18.30
2022-09-24T22:14:41.082Z,18.30
2022-09-24T22:17:08.409Z,18.30
2022-09-24T22:19:35.765Z,18.30
2022-09-24T22:22:03.809Z,18.20
2022-09-24T22:24:31.321Z,18.20
2022-09-24T22:26:59.044Z,18.20
2022-09-24T22:29:26.317Z,18.20
2022-09-24T22:31:53.637Z,18.30
2022-09-24T22:34:39.529Z,18.30
2022-09-24T22:37:07.609Z,18.30
2022-09-24T22:39:35.181Z,18.20
2022-09-24T22:42:03.515Z,18.20
2022-09-24T22:44:30.876Z,18.20
2022-09-24T22:46:58.227Z,18.20
2022-09-24T22:49:25.792Z,18.30
2022-09-24T22:51:53.183Z,18.30
2022-09-24T22:54:43.323Z,18.30
2022-09-24T22:57:35.812Z,18.20
2022-09-24T23:00:12.962Z,18.20
2022-09-24T23:02:41.362Z,18.20
2022-09-24T23:05:25.324Z,18.20
2022-09-24T23:07:54.338Z,18.20
2022-09-24T23:10:36.453Z,18.20
2022-09-24T23:13:03.717Z,18.20
2022-09-24T23:15:40.661Z,18.20
2022-09-24T23:18:07.903Z,18.20
2022-09-24T23:20:35.338Z,18.10
2022-09-24T23:23:04.427Z,18.20
2022-09-24T23:25:37.023Z,18.10
2022-09-24T23:28:04.542Z,18.20
2022-09-24T23:30:31.924Z,18.20
2022-09-24T23:32:59.220Z,18.20
2022-09-24T23:35:26.634Z,18.20
2022-09-24T23:37:53.892Z,18.20
2022-09-24T23:40:21.257Z,18.10
2022-09-24T23:42:53.749Z,18.10
2022-09-24T23:45:21.021Z,18.20
2022-09-24T23:47:48.494Z,18.20
2022-09-24T23:50:22.915Z,18.10
2022-09-24T23:52:50.222Z,18.10
2022-09-24T23:55:17.522Z,18.10
2022-09-24T23:57:44.852Z,18.10
